createdAt,value
2023-04-01T00:02:09.751Z,6.10
2023-04-01T00:04:37.695Z,7.15
2023-04-01T00:07:07.590Z,8.50
2023-04-01T00:09:36.064Z,7.13
2023-04-01T00:12:04.057Z,5.78
2023-04-01T00:14:31.961Z,9.10
2023-04-01T00:16:59.904Z,6.00
2023-04-01T00:19:27.760Z,5.47
2023-04-01T00:21:55.897Z,5.05
2023-04-01T00:24:25.146Z,6.72
2023-04-01T00:26:53.070Z,4.55
2023-04-01T00:29:20.989Z,2.63
2023-04-01T00:31:50.268Z,2.78
2023-04-01T00:34:18.258Z,3.63
2023-04-01T00:36:46.184Z,5.28
2023-04-01T00:39:14.055Z,6.47
2023-04-01T00:41:44.030Z,2.53
2023-04-01T00:44:20.140Z,3.45
2023-04-01T00:46:48.376Z,2.83
2023-04-01T00:49:17.184Z,4.07
2023-04-01T00:51:47.088Z,3.30
2023-04-01T00:54:15.595Z,3.65
2023-04-01T00:56:49.711Z,4.68
2023-04-01T00:59:22.965Z,3.67
2023-04-01T01:01:51.177Z,4.50
2023-04-01T01:04:26.693Z,1.88
2023-04-01T01:07:01.407Z,2.28
2023-04-01T01:09:35.286Z,4.43
2023-04-01T01:12:10.203Z,3.72
2023-04-01T01:14:47.561Z,2.97
2023-04-01T01:17:20.411Z,3.00
2023-04-01T01:20:26.485Z,2.65
2023-04-01T01:23:07.903Z,3.53
2023-04-01T01:25:43.059Z,2.22
2023-04-01T01:28:24.069Z,4.00
2023-04-01T01:30:55.886Z,2.75
2023-04-01T01:33:52.063Z,4.35
2023-04-01T01:36:22.750Z,5.63
2023-04-01T01:38:52.536Z,6.03
2023-04-01T01:41:21.152Z,3.88
2023-04-01T01:43:50.092Z,6.28
2023-04-01T01:46:20.338Z,5.03
2023-04-01T01:48:50.092Z,6.47
2023-04-01T01:51:18.314Z,4.88
2023-04-01T01:53:47.533Z,7.88
2023-04-01T01:56:16.734Z,8.63
2023-04-01T01:58:45.729Z,7.50
2023-04-01T02:01:16.683Z,4.93
2023-04-01T02:03:45.838Z,4.85
2023-04-01T02:06:16.500Z,4.35
2023-04-01T02:08:47.926Z,5.95
2023-04-01T02:11:20.345Z,4.88
2023-04-01T02:13:52.402Z,4.95
2023-04-01T02:16:24.290Z,6.80
2023-04-01T02:18:54.197Z,7.85
2023-04-01T02:21:23.503Z,7.72
2023-04-01T02:23:54.353Z,9.80
2023-04-01T02:26:23.118Z,10.27
2023-04-01T02:28:51.612Z,7.28
2023-04-01T02:31:19.731Z,10.20
2023-04-01T02:33:48.113Z,4.10
2023-04-01T02:36:17.042Z,7.70
2023-04-01T02:38:46.896Z,7.35
2023-04-01T02:41:16.167Z,6.05
2023-04-01T02:43:44.148Z,10.32
2023-04-01T02:46:12.151Z,5.20
2023-04-01T02:48:40.131Z,6.93
2023-04-01T02:51:08.179Z,6.60
2023-04-01T02:53:36.107Z,4.38
2023-04-01T02:56:04.045Z,9.93
2023-04-01T02:58:33.358Z,9.15
2023-04-01T03:01:01.266Z,10.32
2023-04-01T03:03:29.319Z,6.70
2023-04-01T03:06:01.145Z,6.00
2023-04-01T03:08:29.056Z,6.40
2023-04-01T03:10:58.489Z,7.00
2023-04-01T03:13:27.454Z,7.35
2023-04-01T03:15:56.730Z,9.35
2023-04-01T03:18:24.771Z,8.30
2023-04-01T03:20:52.673Z,7.80
2023-04-01T03:23:22.067Z,10.43
2023-04-01T03:25:50.132Z,6.63
2023-04-01T03:28:18.099Z,11.30
2023-04-01T03:30:46.002Z,10.85
2023-04-01T03:33:15.320Z,10.75
2023-04-01T03:35:43.171Z,10.82
2023-04-01T03:38:11.078Z,10.30
2023-04-01T03:40:39.323Z,9.85
2023-04-01T03:43:09.403Z,7.55
2023-04-01T03:45:37.373Z,10.55
2023-04-01T03:48:05.924Z,10.77
2023-04-01T03:50:36.548Z,7.90
2023-04-01T03:53:04.615Z,11.90
2023-04-01T03:55:32.828Z,8.82
2023-04-01T03:58:02.989Z,12.50
2023-04-01T04:00:31.311Z,8.25
2023-04-01T04:02:59.959Z,8.13
2023-04-01T04:05:28.522Z,11.30
2023-04-01T04:07:57.816Z,11.32
2023-04-01T04:10:26.106Z,6.90
2023-04-01T04:12:54.559Z,8.95
2023-04-01T04:15:22.501Z,6.90
2023-04-01T04:17:50.560Z,6.03
2023-04-01T04:20:18.676Z,6.82
2023-04-01T04:22:46.664Z,4.82
2023-04-01T04:25:16.048Z,6.57
2023-04-01T04:27:44.097Z,7.38
2023-04-01T04:30:12.697Z,7.70
2023-04-01T04:32:41.746Z,4.03
2023-04-01T04:35:10.850Z,8.18
2023-04-01T04:37:38.880Z,6.45
2023-04-01T04:40:08.182Z,4.55
2023-04-01T04:42:37.567Z,4.40
2023-04-01T04:45:06.417Z,5.72
2023-04-01T04:47:34.302Z,3.88
2023-04-01T04:50:02.150Z,2.42
2023-04-01T04:52:30.032Z,2.85
2023-04-01T04:54:57.928Z,3.15
2023-04-01T04:57:26.000Z,3.45
2023-04-01T04:59:55.244Z,4.38
2023-04-01T05:02:23.306Z,5.47
2023-04-01T05:04:51.420Z,3.90
2023-04-01T05:07:19.296Z,6.47
2023-04-01T05:09:47.941Z,5.72
2023-04-01T05:12:15.924Z,7.63
2023-04-01T05:14:43.802Z,3.97
2023-04-01T05:17:13.916Z,7.10
2023-04-01T05:19:42.004Z,5.28
2023-04-01T05:22:09.949Z,9.15
2023-04-01T05:24:37.858Z,10.43
2023-04-01T05:27:05.761Z,9.90
2023-04-01T05:29:33.930Z,8.60
2023-04-01T05:32:01.802Z,8.85
2023-04-01T05:34:31.076Z,11.75
2023-04-01T05:36:59.000Z,11.30
2023-04-01T05:39:27.266Z,10.88
2023-04-01T05:41:55.300Z,10.02
2023-04-01T05:44:23.230Z,11.73
2023-04-01T05:46:51.306Z,9.07
2023-04-01T05:49:19.546Z,10.90
2023-04-01T05:51:48.869Z,10.23
2023-04-01T05:54:16.744Z,11.60
2023-04-01T05:56:46.345Z,14.27
2023-04-01T05:59:15.423Z,9.75
2023-04-01T06:01:44.330Z,9.48
2023-04-01T06:04:16.613Z,13.73
2023-04-01T06:06:45.055Z,11.90
2023-04-01T06:09:18.220Z,11.10
2023-04-01T06:11:57.845Z,13.55
2023-04-01T06:14:35.221Z,12.50
2023-04-01T06:17:11.628Z,11.80
2023-04-01T06:19:45.290Z,8.70
2023-04-01T06:22:24.672Z,10.48
2023-04-01T06:25:04.898Z,12.20
2023-04-01T06:27:44.458Z,14.35
2023-04-01T06:30:34.701Z,9.07
2023-04-01T06:33:10.657Z,11.60
2023-04-01T06:35:48.110Z,8.93
2023-04-01T06:38:35.362Z,11.75
2023-04-01T06:41:22.875Z,11.38
2023-04-01T06:43:58.810Z,8.88
2023-04-01T06:46:33.939Z,8.70
2023-04-01T06:49:10.260Z,10.15
2023-04-01T06:51:47.018Z,9.45
2023-04-01T06:54:19.820Z,10.52
2023-04-01T06:56:51.668Z,9.45
2023-04-01T06:59:21.720Z,7.47
2023-04-01T07:01:52.793Z,6.88
2023-04-01T07:04:23.146Z,6.55
2023-04-01T07:06:54.293Z,6.88
2023-04-01T07:09:24.924Z,9.38
2023-04-01T07:11:55.929Z,7.40
2023-04-01T07:14:28.080Z,5.30
2023-04-01T07:16:59.195Z,5.20
2023-04-01T07:19:29.877Z,7.38
2023-04-01T07:22:03.959Z,7.55
2023-04-01T07:24:35.722Z,5.60
2023-04-01T07:27:05.409Z,5.68
2023-04-01T07:29:33.329Z,4.50
2023-04-01T07:32:12.053Z,5.57
2023-04-01T07:34:46.454Z,6.47
2023-04-01T07:37:17.686Z,4.15
2023-04-01T07:39:53.481Z,5.07
2023-04-01T07:42:31.848Z,6.15
2023-04-01T07:45:05.549Z,2.83
2023-04-01T07:47:43.073Z,4.22
2023-04-01T07:50:18.599Z,1.33
2023-04-01T07:52:53.033Z,2.90
2023-04-01T07:55:25.569Z,4.07
2023-04-01T07:58:01.250Z,2.30
2023-04-01T08:00:32.327Z,2.00
2023-04-01T08:03:29.967Z,2.50
2023-04-01T08:06:01.431Z,4.93
2023-04-01T08:08:39.623Z,2.40
2023-04-01T08:11:14.739Z,1.35
2023-04-01T08:13:48.370Z,1.42
2023-04-01T08:16:20.416Z,1.35
2023-04-01T08:18:55.096Z,1.60
2023-04-01T08:21:26.523Z,2.65
2023-04-01T08:23:56.142Z,4.85
2023-04-01T08:26:30.628Z,1.25
2023-04-01T08:29:03.912Z,2.58
2023-04-01T08:31:35.184Z,6.13
2023-04-01T08:34:05.753Z,2.75
2023-04-01T08:36:35.378Z,1.63
2023-04-01T08:39:07.990Z,1.52
2023-04-01T08:41:48.129Z,1.67
2023-04-01T08:44:32.246Z,2.30
2023-04-01T08:47:22.806Z,2.15
2023-04-01T08:50:02.216Z,1.77
2023-04-01T08:52:36.160Z,3.63
2023-04-01T08:55:33.201Z,1.63
2023-04-01T08:58:09.807Z,3.00
2023-04-01T09:00:45.812Z,3.33
2023-04-01T09:03:48.127Z,2.38
2023-04-01T09:06:41.078Z,2.85
2023-04-01T09:09:23.885Z,1.52
2023-04-01T09:12:05.284Z,3.38
2023-04-01T09:15:01.331Z,2.72
2023-04-01T09:17:53.201Z,2.30
2023-04-01T09:20:59.081Z,4.85
2023-04-01T09:23:59.577Z,3.47
2023-04-01T09:26:44.188Z,1.52
2023-04-01T09:29:25.279Z,2.65
2023-04-01T09:32:07.124Z,2.58
2023-04-01T09:35:00.780Z,3.08
2023-04-01T09:37:37.563Z,3.03
2023-04-01T09:40:18.096Z,3.05
2023-04-01T09:42:51.352Z,4.05
2023-04-01T09:45:30.184Z,1.70
2023-04-01T09:48:08.201Z,2.33
2023-04-01T09:50:45.172Z,1.75
2023-04-01T09:53:24.931Z,3.53
2023-04-01T09:56:34.493Z,1.55
2023-04-01T09:59:26.430Z,3.15
2023-04-01T10:02:25.491Z,2.10
2023-04-01T10:05:26.729Z,1.63
2023-04-01T10:08:17.785Z,2.67
2023-04-01T10:11:18.128Z,2.63
2023-04-01T10:14:03.871Z,2.20
2023-04-01T10:16:46.934Z,1.02
2023-04-01T10:19:52.946Z,1.15
2023-04-01T10:22:57.399Z,2.03
2023-04-01T10:25:47.258Z,3.05
2023-04-01T10:28:43.687Z,1.65
2023-04-01T10:31:47.219Z,3.25
2023-04-01T10:34:52.219Z,0.80
2023-04-01T10:37:39.037Z,1.73
2023-04-01T10:40:33.494Z,1.60
2023-04-01T10:46:25.530Z,2.05
2023-04-01T10:49:23.442Z,3.75
2023-04-01T10:52:26.006Z,1.58
2023-04-01T10:55:08.563Z,1.60
2023-04-01T10:58:06.303Z,2.45
2023-04-01T11:00:46.970Z,2.40
2023-04-01T11:03:51.886Z,3.35
2023-04-01T11:06:55.337Z,1.55
2023-04-01T11:09:45.737Z,2.75
2023-04-01T11:12:39.971Z,2.20
2023-04-01T11:15:26.638Z,5.25
2023-04-01T11:18:27.083Z,1.75
2023-04-01T11:21:28.091Z,3.28
2023-04-01T11:24:12.041Z,2.05
2023-04-01T11:26:47.033Z,2.45
2023-04-01T11:30:05.400Z,1.75
2023-04-01T11:32:44.718Z,1.10
2023-04-01T11:35:41.214Z,1.83
2023-04-01T11:38:47.527Z,1.95
2023-04-01T11:41:28.578Z,1.83
2023-04-01T11:44:10.584Z,1.88
2023-04-01T11:46:45.904Z,3.08
2023-04-01T11:49:27.547Z,2.53
2023-04-01T11:52:08.950Z,2.55
2023-04-01T11:54:51.364Z,2.00
2023-04-01T11:57:45.099Z,5.40
2023-04-01T12:00:32.894Z,2.10
2023-04-01T12:03:13.259Z,2.42
2023-04-01T12:05:45.440Z,1.67
2023-04-01T12:08:23.523Z,1.08
2023-04-01T12:10:57.948Z,1.90
2023-04-01T12:13:35.905Z,3.15
2023-04-01T12:16:21.027Z,2.63
2023-04-01T12:18:52.910Z,1.50
2023-04-01T12:21:27.802Z,2.30
2023-04-01T12:24:18.726Z,1.83
2023-04-01T12:26:57.758Z,1.67
2023-04-01T12:29:44.462Z,1.40
2023-04-01T12:32:22.166Z,1.10
2023-04-01T12:35:15.626Z,1.90
2023-04-01T12:37:48.455Z,2.28
2023-04-01T12:40:40.096Z,1.60
2023-04-01T12:43:22.454Z,1.52
2023-04-01T12:45:58.021Z,1.70
2023-04-01T12:48:39.523Z,1.10
2023-04-01T12:51:44.787Z,1.10
2023-04-01T12:54:32.585Z,1.60
2023-04-01T12:57:12.800Z,0.90
2023-04-01T13:00:05.541Z,0.98
2023-04-01T13:02:42.524Z,0.85
2023-04-01T13:05:27.066Z,1.55
2023-04-01T13:08:21.036Z,1.38
2023-04-01T13:11:03.563Z,3.30
2023-04-01T13:13:43.391Z,2.40
2023-04-01T13:16:14.769Z,0.90
2023-04-01T13:18:55.241Z,1.55
2023-04-01T13:21:31.469Z,2.78
2023-04-01T13:24:04.425Z,1.70
2023-04-01T13:26:36.959Z,2.33
2023-04-01T13:29:08.869Z,2.63
2023-04-01T13:31:47.144Z,1.33
2023-04-01T13:34:26.625Z,1.50
2023-04-01T13:37:05.388Z,3.35
2023-04-01T13:39:50.628Z,2.55
2023-04-01T13:42:25.934Z,1.40
2023-04-01T13:44:57.624Z,1.75
2023-04-01T13:47:56.873Z,1.75
2023-04-01T13:50:43.945Z,2.20
2023-04-01T13:53:31.975Z,1.55
2023-04-01T13:56:10.700Z,2.80
2023-04-01T13:58:46.169Z,2.97
2023-04-01T14:01:18.218Z,3.40
2023-04-01T14:04:25.984Z,1.83
2023-04-01T14:07:06.700Z,1.55
2023-04-01T14:09:48.131Z,3.38
2023-04-01T14:12:24.483Z,2.05
2023-04-01T14:15:02.826Z,2.35
2023-04-01T14:17:45.571Z,2.60
2023-04-01T14:20:25.374Z,3.88
2023-04-01T14:23:07.431Z,3.05
2023-04-01T14:26:01.246Z,1.85
2023-04-01T14:28:33.661Z,2.42
2023-04-01T14:31:24.313Z,1.05
2023-04-01T14:34:03.098Z,0.82
2023-04-01T14:36:49.895Z,2.63
2023-04-01T14:39:29.620Z,1.02
2023-04-01T14:42:15.424Z,2.20
2023-04-01T14:45:04.824Z,2.47
2023-04-01T14:47:46.637Z,4.43
2023-04-01T14:50:17.664Z,1.38
2023-04-01T14:52:51.233Z,2.00
2023-04-01T14:55:29.868Z,2.88
2023-04-01T14:58:02.733Z,1.90
2023-04-01T15:00:46.010Z,2.90
2023-04-01T15:03:18.494Z,1.55
2023-04-01T15:05:50.198Z,1.85
2023-04-01T15:08:21.754Z,3.17
2023-04-01T15:11:04.138Z,2.05
2023-04-01T15:14:02.224Z,2.58
2023-04-01T15:16:33.882Z,2.30
2023-04-01T15:19:10.302Z,2.25
2023-04-01T15:21:55.014Z,1.48
2023-04-01T15:24:25.206Z,0.88
2023-04-01T15:27:09.253Z,1.95
2023-04-01T15:29:44.437Z,0.80
2023-04-01T15:32:19.401Z,1.50
2023-04-01T15:34:54.136Z,2.38
2023-04-01T15:37:29.840Z,3.33
2023-04-01T15:40:00.723Z,1.33
2023-04-01T15:42:40.356Z,1.92
2023-04-01T15:45:36.208Z,1.55
2023-04-01T15:48:13.169Z,1.75
2023-04-01T15:50:55.714Z,1.38
2023-04-01T15:53:44.169Z,1.85
2023-04-01T15:56:21.383Z,2.35
2023-04-01T15:58:59.279Z,1.90
2023-04-01T16:01:38.253Z,4.47
2023-04-01T16:04:30.381Z,3.50
2023-04-01T16:07:09.519Z,1.40
2023-04-01T16:09:54.999Z,0.73
2023-04-01T16:12:37.631Z,0.98
2023-04-01T16:15:14.803Z,3.08
2023-04-01T16:18:00.399Z,1.13
2023-04-01T16:20:42.760Z,1.80
2023-04-01T16:23:16.137Z,1.17
2023-04-01T16:25:48.441Z,1.20
2023-04-01T16:28:22.195Z,1.50
2023-04-01T16:30:58.366Z,1.75
2023-04-01T16:33:34.252Z,1.95
2023-04-01T16:36:11.652Z,1.63
2023-04-01T16:38:44.018Z,1.38
2023-04-01T16:41:18.793Z,3.15
2023-04-01T16:43:49.544Z,0.90
2023-04-01T16:46:38.435Z,1.95
2023-04-01T16:49:19.676Z,1.33
2023-04-01T16:51:50.992Z,1.27
2023-04-01T16:54:30.317Z,2.47
2023-04-01T16:57:05.621Z,1.48
2023-04-01T16:59:37.619Z,1.45
2023-04-01T17:02:13.123Z,2.92
2023-04-01T17:04:45.492Z,3.92
2023-04-01T17:07:21.614Z,1.50
2023-04-01T17:10:02.978Z,2.92
2023-04-01T17:12:35.749Z,2.50
2023-04-01T17:15:10.223Z,1.48
2023-04-01T17:17:47.384Z,1.58
2023-04-01T17:20:34.006Z,2.85
2023-04-01T17:23:03.901Z,2.05
2023-04-01T17:25:47.085Z,2.65
2023-04-01T17:28:28.564Z,1.98
2023-04-01T17:31:05.154Z,3.60
2023-04-01T17:34:03.462Z,1.65
2023-04-01T17:36:41.679Z,2.78
2023-04-01T17:39:26.203Z,2.60
2023-04-01T17:41:57.001Z,2.95
2023-04-01T17:44:33.765Z,3.53
2023-04-01T17:47:31.713Z,2.85
2023-04-01T17:50:09.531Z,5.07
2023-04-01T17:52:40.411Z,1.70
2023-04-01T17:55:30.409Z,2.13
2023-04-01T17:58:02.644Z,2.35
2023-04-01T18:00:46.064Z,1.67
2023-04-01T18:03:30.714Z,1.58
2023-04-01T18:06:06.134Z,1.98
2023-04-01T18:08:41.847Z,2.05
2023-04-01T18:11:16.422Z,2.63
2023-04-01T18:14:14.422Z,2.45
2023-04-01T18:16:51.052Z,3.92
2023-04-01T18:19:27.122Z,3.58
2023-04-01T18:21:59.051Z,3.55
2023-04-01T18:24:30.191Z,3.05
2023-04-01T18:27:04.752Z,4.13
2023-04-01T18:29:42.213Z,3.35
2023-04-01T18:32:16.740Z,5.20
2023-04-01T18:34:54.677Z,4.15
2023-04-01T18:37:28.411Z,4.00
2023-04-01T18:40:00.179Z,4.63
2023-04-01T18:42:36.137Z,4.90
2023-04-01T18:45:12.945Z,5.90
2023-04-01T18:47:44.603Z,6.32
2023-04-01T18:50:21.320Z,5.07
2023-04-01T18:52:54.417Z,4.63
2023-04-01T18:55:32.469Z,6.13
2023-04-01T18:58:13.806Z,9.50
2023-04-01T19:00:46.088Z,7.95
2023-04-01T19:03:19.854Z,9.55
2023-04-01T19:05:49.512Z,7.35
2023-04-01T19:08:28.775Z,9.15
2023-04-01T19:11:12.005Z,11.38
2023-04-01T19:13:48.658Z,12.23
2023-04-01T19:16:26.297Z,11.88
2023-04-01T19:19:13.757Z,13.05
2023-04-01T19:21:44.483Z,14.50
2023-04-01T19:24:28.652Z,14.20
2023-04-01T19:27:01.344Z,18.63
2023-04-01T19:29:39.406Z,17.42
2023-04-01T19:32:16.427Z,18.13
2023-04-01T19:34:53.771Z,20.20
2023-04-01T19:37:31.735Z,17.38
2023-04-01T19:40:11.153Z,19.33
2023-04-01T19:42:44.300Z,21.73
2023-04-01T19:45:26.162Z,28.98
2023-04-01T19:48:00.900Z,18.27
2023-04-01T19:50:36.380Z,24.92
2023-04-01T19:53:14.879Z,23.65
2023-04-01T19:55:49.574Z,17.98
2023-04-01T19:58:23.353Z,23.73
2023-04-01T20:00:55.114Z,24.88
2023-04-01T20:03:36.858Z,23.27
2023-04-01T20:06:13.306Z,30.40
2023-04-01T20:08:44.901Z,24.48
2023-04-01T20:11:29.790Z,26.05
2023-04-01T20:14:06.935Z,23.80
2023-04-01T20:16:53.433Z,29.58
2023-04-01T20:19:30.438Z,25.88
2023-04-01T20:22:00.562Z,30.27
2023-04-01T20:24:32.955Z,19.33
2023-04-01T20:27:07.407Z,18.30
2023-04-01T20:30:02.428Z,22.45
2023-04-01T20:32:51.620Z,16.50
2023-04-01T20:35:32.577Z,17.88
2023-04-01T20:38:17.654Z,16.88
2023-04-01T20:40:47.686Z,16.00
2023-04-01T20:43:33.007Z,17.17
2023-04-01T20:46:02.661Z,21.17
2023-04-01T20:48:50.877Z,21.95
2023-04-01T20:51:23.222Z,23.90
2023-04-01T20:53:56.049Z,26.58
2023-04-01T20:56:33.561Z,26.25
2023-04-01T20:59:14.328Z,29.45
2023-04-01T21:01:48.754Z,34.65
2023-04-01T21:04:25.740Z,29.25
2023-04-01T21:07:06.879Z,28.50
2023-04-01T21:09:46.324Z,31.27
2023-04-01T21:12:24.757Z,31.60
2023-04-01T21:15:01.677Z,31.38
2023-04-01T21:17:37.972Z,30.40
2023-04-01T21:20:39.407Z,25.92
2023-04-01T21:23:20.126Z,34.95
2023-04-01T21:26:11.972Z,30.67
2023-04-01T21:28:56.231Z,33.83
2023-04-01T21:31:36.210Z,24.85
2023-04-01T21:34:30.988Z,20.67
2023-04-01T21:37:08.493Z,25.27
2023-04-01T21:39:58.443Z,21.83
2023-04-01T21:42:34.994Z,23.20
2023-04-01T21:45:22.530Z,19.63
2023-04-01T21:48:32.967Z,17.13
2023-04-01T21:51:18.900Z,19.60
2023-04-01T21:53:57.709Z,19.20
2023-04-01T21:56:55.932Z,18.90
2023-04-01T21:59:48.561Z,17.42
2023-04-01T22:02:53.188Z,17.35
2023-04-01T22:05:24.745Z,18.63
2023-04-01T22:07:56.633Z,19.88
2023-04-01T22:10:31.251Z,21.38
2023-04-01T22:13:06.453Z,23.85
2023-04-01T22:15:51.614Z,17.95
2023-04-01T22:18:24.230Z,20.33
2023-04-01T22:21:06.093Z,21.10
2023-04-01T22:23:39.040Z,20.52
2023-04-01T22:26:11.815Z,19.15
2023-04-01T22:28:45.139Z,18.00
2023-04-01T22:31:16.941Z,21.08
2023-04-01T22:33:50.683Z,18.38
2023-04-01T22:36:27.038Z,23.58
2023-04-01T22:39:07.167Z,18.42
2023-04-01T22:41:46.645Z,22.58
2023-04-01T22:44:23.726Z,22.65
2023-04-01T22:46:56.197Z,19.20
2023-04-01T22:49:28.925Z,16.92
2023-04-01T22:52:03.133Z,17.63
2023-04-01T22:54:33.791Z,19.25
2023-04-01T22:57:04.326Z,14.50
2023-04-01T22:59:37.942Z,15.43
2023-04-01T23:02:10.479Z,17.77
2023-04-01T23:04:41.542Z,17.77
2023-04-01T23:07:26.074Z,17.13
2023-04-01T23:09:55.655Z,19.27
2023-04-01T23:12:23.994Z,18.27
2023-04-01T23:14:53.422Z,18.38
2023-04-01T23:17:38.289Z,14.85
2023-04-01T23:20:17.996Z,14.80
2023-04-01T23:22:57.162Z,14.50
2023-04-01T23:25:30.640Z,16.20
2023-04-01T23:28:06.397Z,14.20
2023-04-01T23:30:52.364Z,13.35
2023-04-01T23:33:24.398Z,16.70
2023-04-01T23:35:53.589Z,13.00
2023-04-01T23:38:24.710Z,14.82
2023-04-01T23:40:54.410Z,14.27
2023-04-01T23:43:26.683Z,14.95
2023-04-01T23:45:55.443Z,14.85
2023-04-01T23:48:29.078Z,16.50
2023-04-01T23:50:58.284Z,19.58
2023-04-01T23:53:30.945Z,23.27
2023-04-01T23:55:59.140Z,24.83
2023-04-01T23:58:29.077Z,25.08
